Time;durP1;ratioP1;P1;durP2;ratioP2;P2;SDS_P1;SDS_P2;PMS_P1;PMS_P2;Temp;Humidity;BMP_temperature;BMP_pressure;BME280_temperature;BME280_humidity;BME280_pressure;Samples;Min_cycle;Max_cycle;Signal;HPM_P1;HPM_P2
2022/08/14 00:02:00;;;;;;;2.33;2.00;;;22.10;63.80;;;;;;5092433;28;20107;-67
2022/08/14 00:04:26;;;;;;;3.85;1.73;;;22.10;63.80;;;;;;5093622;28;20468;-67
2022/08/14 00:06:52;;;;;;;2.67;1.98;;;21.90;63.90;;;;;;5094190;28;20059;-67
2022/08/14 00:09:18;;;;;;;2.72;1.85;;;21.80;64.10;;;;;;5093323;28;20107;-67
2022/08/14 00:11:43;;;;;;;3.28;1.60;;;21.80;64.40;;;;;;5093590;28;20559;-67
2022/08/14 00:14:09;;;;;;;3.08;1.90;;;21.70;64.40;;;;;;5093556;28;20028;-67
2022/08/14 00:16:36;;;;;;;2.03;1.67;;;21.70;64.50;;;;;;5094130;28;20150;-67
2022/08/14 00:19:02;;;;;;;3.22;2.10;;;21.80;64.50;;;;;;5094922;28;20031;-67
2022/08/14 00:21:28;;;;;;;3.42;1.90;;;21.70;64.60;;;;;;5093723;28;20026;-67
2022/08/14 00:23:55;;;;;;;2.63;2.08;;;21.70;64.50;;;;;;5093713;28;20115;-67
2022/08/14 00:26:22;;;;;;;2.28;1.70;;;21.80;64.40;;;;;;5092466;28;20484;-67
2022/08/14 00:28:47;;;;;;;3.10;1.95;;;21.80;64.10;;;;;;5094131;28;20043;-67
2022/08/14 00:31:13;;;;;;;2.83;2.10;;;21.90;64.00;;;;;;5094855;28;20099;-67
2022/08/14 00:33:39;;;;;;;3.97;1.92;;;22.00;63.80;;;;;;5094291;28;20029;-67
2022/08/14 00:36:05;;;;;;;2.72;1.85;;;22.00;63.50;;;;;;5099296;28;20020;-68
2022/08/14 00:38:32;;;;;;;5.28;1.80;;;22.10;63.40;;;;;;5099773;28;20115;-67
2022/08/14 00:40:58;;;;;;;3.25;1.70;;;22.20;63.20;;;;;;5099452;28;20021;-67
2022/08/14 00:43:23;;;;;;;2.15;1.83;;;22.30;62.90;;;;;;5098618;28;20031;-67
2022/08/14 00:45:49;;;;;;;5.03;1.90;;;22.30;63.00;;;;;;5099131;28;20477;-68
2022/08/14 00:48:17;;;;;;;2.72;1.92;;;22.30;62.90;;;;;;5099666;28;20031;-66
2022/08/14 00:50:43;;;;;;;4.28;1.90;;;22.30;62.90;;;;;;5099540;28;20059;-66
2022/08/14 00:53:09;;;;;;;5.78;1.88;;;22.30;62.80;;;;;;5099308;28;20074;-66
2022/08/14 00:55:36;;;;;;;2.47;1.92;;;22.40;62.80;;;;;;5099976;28;20016;-67
2022/08/14 01:00:48;;;;;;;4.65;2.22;;;22.40;62.90;;;;;;5099041;28;20066;-67
2022/08/14 01:03:16;;;;;;;2.22;1.88;;;22.30;63.10;;;;;;5098337;28;20473;-67
2022/08/14 01:05:48;;;;;;;1.80;1.70;;;22.30;63.30;;;;;;5098656;28;20059;-67
2022/08/14 01:08:20;;;;;;;2.22;1.92;;;22.30;63.30;;;;;;5097449;28;20369;-67
2022/08/14 01:10:50;;;;;;;2.88;1.92;;;22.30;63.30;;;;;;5097600;28;20028;-68
2022/08/14 01:13:38;;;;;;;3.47;1.75;;;22.20;63.50;;;;;;5099566;28;20613;-67
2022/08/14 01:16:08;;;;;;;2.03;1.70;;;22.20;63.80;;;;;;5098579;28;20392;-67
2022/08/14 01:21:39;;;;;;;2.20;1.90;;;22.10;64.00;;;;;;5098539;28;20035;-67
2022/08/14 01:24:06;;;;;;;3.40;1.73;;;22.10;64.00;;;;;;5097934;28;20131;-66
2022/08/14 01:26:34;;;;;;;2.40;1.75;;;22.20;63.90;;;;;;5096436;28;20090;-66
2022/08/14 01:29:00;;;;;;;2.45;1.83;;;22.20;63.90;;;;;;5097342;28;20032;-66
2022/08/14 01:31:28;;;;;;;4.20;1.85;;;22.10;64.00;;;;;;5098226;28;20463;-65
2022/08/14 01:33:56;;;;;;;3.15;1.90;;;22.10;64.00;;;;;;5096468;28;20020;-66
2022/08/14 01:36:24;;;;;;;2.60;1.98;;;22.00;64.10;;;;;;5094715;28;20055;-65
2022/08/14 01:38:52;;;;;;;2.63;1.80;;;22.10;64.20;;;;;;5096215;28;20028;-65
2022/08/14 01:41:19;;;;;;;4.38;2.00;;;22.10;64.00;;;;;;5096130;28;20016;-65
2022/08/14 01:43:49;;;;;;;3.30;2.00;;;22.20;64.00;;;;;;5096095;28;20020;-65
2022/08/14 01:46:21;;;;;;;3.28;1.67;;;22.20;63.90;;;;;;5094616;28;20019;-66
2022/08/14 01:48:47;;;;;;;6.00;2.05;;;22.20;63.90;;;;;;5095880;28;20070;-66
2022/08/14 01:51:15;;;;;;;2.00;1.80;;;22.20;63.80;;;;;;5096037;28;20062;-66
2022/08/14 01:53:44;;;;;;;4.55;2.00;;;22.20;63.90;;;;;;5095816;28;20031;-66
2022/08/14 01:56:10;;;;;;;3.60;1.90;;;22.20;63.90;;;;;;5096052;28;20024;-66
2022/08/14 01:58:36;;;;;;;3.78;2.03;;;22.20;64.00;;;;;;5096257;28;20032;-66
2022/08/14 02:01:03;;;;;;;3.10;2.00;;;22.00;64.50;;;;;;5095751;28;20494;-66
2022/08/14 02:03:31;;;;;;;2.80;2.08;;;21.80;65.80;;;;;;5094207;28;20020;-66
2022/08/14 02:05:58;;;;;;;2.85;1.90;;;21.80;65.40;;;;;;5095841;28;20031;-66
2022/08/14 02:08:29;;;;;;;5.43;1.92;;;21.80;65.50;;;;;;5096104;28;20028;-66
2022/08/14 02:11:16;;;;;;;4.45;2.25;;;21.80;65.50;;;;;;5096121;28;20031;-65
2022/08/14 02:13:43;;;;;;;4.63;1.92;;;21.80;65.50;;;;;;5096204;28;20154;-65
2022/08/14 02:16:15;;;;;;;3.20;2.25;;;21.80;65.60;;;;;;5094044;28;20185;-66
2022/08/14 02:18:41;;;;;;;3.58;1.95;;;21.80;65.70;;;;;;5095209;28;20024;-65
2022/08/14 02:21:07;;;;;;;3.08;1.92;;;21.70;65.80;;;;;;5095141;28;20012;-66
2022/08/14 02:23:33;;;;;;;3.35;2.00;;;21.50;66.20;;;;;;5095010;28;20026;-65
2022/08/14 02:26:00;;;;;;;;;;;21.50;66.50;;;;;;5094146;28;20115;-65
2022/08/14 02:28:29;;;;;;;3.05;1.80;;;21.50;66.40;;;;;;5094899;28;20401;-66
2022/08/14 02:30:55;;;;;;;5.05;2.50;;;21.50;66.50;;;;;;5093726;28;20042;-66
2022/08/14 02:33:21;;;;;;;;;;;21.40;66.60;;;;;;5095709;28;20518;-66
2022/08/14 02:35:47;;;;;;;4.57;2.20;;;21.40;66.90;;;;;;5094909;28;19970;-66
2022/08/14 02:38:13;;;;;;;4.88;1.85;;;21.40;66.80;;;;;;5093250;28;20054;-66
2022/08/14 02:40:38;;;;;;;2.30;1.80;;;21.30;66.90;;;;;;5094695;28;20028;-67
2022/08/14 02:43:05;;;;;;;2.67;1.98;;;21.40;66.90;;;;;;5094941;28;20077;-65
2022/08/14 02:45:34;;;;;;;2.25;1.95;;;21.40;66.90;;;;;;5094692;28;20388;-65
2022/08/14 02:48:02;;;;;;;2.05;1.85;;;21.30;67.00;;;;;;5094549;28;20103;-65
2022/08/14 02:50:28;;;;;;;2.78;1.70;;;21.40;66.90;;;;;;5094757;28;20498;-65
2022/08/14 02:52:53;;;;;;;3.90;1.80;;;21.30;66.90;;;;;;5094821;28;20040;-65
2022/08/14 02:55:20;;;;;;;3.20;1.90;;;21.30;67.10;;;;;;5094723;28;20028;-65
2022/08/14 02:57:49;;;;;;;2.47;1.80;;;21.30;66.90;;;;;;5094223;28;20120;-65
2022/08/14 03:00:15;;;;;;;2.10;1.85;;;21.40;66.90;;;;;;5094701;28;20461;-65
2022/08/14 03:02:41;;;;;;;4.70;2.03;;;21.50;66.60;;;;;;5095157;28;20085;-65
2022/08/14 03:05:07;;;;;;;4.55;2.13;;;21.60;66.30;;;;;;5095170;28;20024;-65
2022/08/14 03:07:33;;;;;;;3.00;1.98;;;21.60;66.30;;;;;;5094958;28;20040;-64
2022/08/14 03:09:59;;;;;;;10.07;2.35;;;21.60;66.30;;;;;;5094803;28;20036;-65
2022/08/14 03:12:25;;;;;;;;;;;21.50;66.40;;;;;;5094964;28;20107;-65
2022/08/14 03:14:51;;;;;;;3.40;1.92;;;21.50;66.50;;;;;;5093733;28;20347;-65
2022/08/14 03:17:17;;;;;;;4.55;2.13;;;21.50;66.50;;;;;;5095314;28;20027;-66
2022/08/14 03:19:43;;;;;;;2.90;2.17;;;21.50;66.80;;;;;;5095071;28;20020;-64
2022/08/14 03:22:09;;;;;;;4.65;2.30;;;21.50;67.30;;;;;;5094642;28;20039;-65
2022/08/14 03:24:38;;;;;;;2.30;1.98;;;21.40;67.40;;;;;;5094714;28;20024;-65
2022/08/14 03:27:04;;;;;;;4.50;1.90;;;21.30;67.50;;;;;;5100996;28;20028;-65
2022/08/14 03:29:30;;;;;;;2.78;1.60;;;21.20;67.80;;;;;;5101776;28;20511;-65
2022/08/14 03:31:56;;;;;;;3.15;2.00;;;21.20;67.90;;;;;;5093357;28;20024;-65
2022/08/14 03:34:26;;;;;;;2.05;1.73;;;21.10;68.20;;;;;;5092918;28;20024;-65
2022/08/14 03:36:54;;;;;;;2.05;1.83;;;20.90;68.30;;;;;;5094218;28;20056;-65
2022/08/14 03:39:21;;;;;;;4.40;2.35;;;20.90;68.60;;;;;;5094044;28;20103;-65
2022/08/14 03:41:48;;;;;;;2.92;1.75;;;20.80;68.80;;;;;;5092764;28;20024;-65
2022/08/14 03:44:13;;;;;;;2.17;1.77;;;20.70;69.20;;;;;;5092557;28;20406;-66
2022/08/14 03:46:41;;;;;;;3.10;2.10;;;20.60;69.30;;;;;;5094259;28;20012;-66
2022/08/14 03:49:08;;;;;;;3.35;2.10;;;20.60;69.50;;;;;;5093838;28;20024;-65
2022/08/14 03:51:36;;;;;;;2.42;2.13;;;20.60;69.60;;;;;;5093743;28;20027;-65
2022/08/14 03:54:06;;;;;;;3.10;1.95;;;20.60;69.80;;;;;;5093637;28;20020;-66
2022/08/14 03:56:32;;;;;;;3.35;1.60;;;20.70;69.80;;;;;;5093743;28;20150;-65
2022/08/14 03:59:01;;;;;;;4.78;1.92;;;20.60;69.80;;;;;;5093534;28;20466;-66
2022/08/14 04:01:28;;;;;;;2.47;1.85;;;20.60;70.60;;;;;;5092290;28;20024;-66
2022/08/14 04:03:57;;;;;;;4.93;2.38;;;20.50;70.10;;;;;;5093603;28;20024;-65
2022/08/14 04:06:23;;;;;;;5.32;2.10;;;20.50;70.30;;;;;;5093585;28;20417;-66
2022/08/14 04:08:48;;;;;;;3.55;2.08;;;20.50;70.30;;;;;;5093428;28;20035;-66
2022/08/14 04:11:16;;;;;;;3.15;2.13;;;20.50;70.40;;;;;;5096082;28;20024;-65
2022/08/14 04:13:42;;;;;;;4.55;2.28;;;20.50;70.50;;;;;;5097536;28;20468;-66
2022/08/14 04:16:12;;;;;;;3.25;2.25;;;20.50;70.50;;;;;;5097369;28;20028;-65
2022/08/14 04:18:40;;;;;;;3.53;2.55;;;20.50;70.50;;;;;;5095953;28;20051;-66
2022/08/14 04:21:06;;;;;;;3.40;1.98;;;20.40;70.50;;;;;;5097591;28;20012;-65
2022/08/14 04:23:32;;;;;;;4.80;2.28;;;20.40;70.70;;;;;;5097794;28;20032;-65
2022/08/14 04:25:57;;;;;;;;;;;20.40;70.60;;;;;;5097897;28;20073;-65
2022/08/14 04:28:24;;;;;;;2.17;1.90;;;20.20;70.80;;;;;;5097172;28;19994;-66
2022/08/14 04:30:50;;;;;;;3.65;1.90;;;20.10;71.40;;;;;;5097670;28;20023;-65
2022/08/14 04:33:16;;;;;;;2.78;2.00;;;20.10;71.60;;;;;;5097538;28;20055;-66
2022/08/14 04:35:41;;;;;;;4.25;2.42;;;19.80;72.10;;;;;;5097432;28;20040;-66
2022/08/14 04:43:38;;;;;;;3.05;1.92;;;19.40;73.50;;;;;;5097114;28;20031;-66
2022/08/14 04:46:11;;;;;;;2.67;1.90;;;19.30;74.20;;;;;;5095830;28;20050;-66
2022/08/14 04:48:37;;;;;;;3.10;2.00;;;19.10;74.40;;;;;;5097299;28;20020;-66
2022/08/14 04:51:04;;;;;;;;;;;19.20;74.70;;;;;;5097206;28;20504;-66
2022/08/14 04:53:32;;;;;;;2.67;2.13;;;19.30;74.40;;;;;;5095610;28;20333;-65
2022/08/14 04:55:57;;;;;;;4.68;2.05;;;19.30;74.50;;;;;;5096963;28;20027;-66
2022/08/14 04:58:26;;;;;;;2.33;1.92;;;19.20;74.80;;;;;;5096909;28;20036;-65
2022/08/14 05:00:54;;;;;;;4.55;2.20;;;19.10;75.00;;;;;;5095470;28;20024;-65
2022/08/14 05:03:21;;;;;;;3.10;2.30;;;19.20;75.00;;;;;;5097047;28;20085;-65
2022/08/14 05:05:48;;;;;;;3.75;2.13;;;19.10;75.00;;;;;;5096419;28;20119;-65
2022/08/14 05:08:15;;;;;;;2.60;2.15;;;19.30;75.00;;;;;;5096917;28;20059;-67
2022/08/14 05:10:50;;;;;;;2.22;1.83;;;19.30;74.90;;;;;;5097941;28;20027;-66
2022/08/14 05:13:21;;;;;;;4.63;2.47;;;19.40;74.80;;;;;;5097719;28;20028;-65
2022/08/14 05:15:48;;;;;;;2.10;1.77;;;19.40;74.70;;;;;;5097716;28;20043;-66
2022/08/14 05:18:19;;;;;;;5.22;2.20;;;19.50;74.60;;;;;;5095447;28;20028;-66
2022/08/14 05:20:49;;;;;;;4.97;1.95;;;19.60;74.10;;;;;;5097448;28;20378;-66
2022/08/14 05:23:17;;;;;;;3.53;2.08;;;19.70;74.10;;;;;;5097021;28;20069;-67
2022/08/14 05:25:50;;;;;;;2.85;2.13;;;19.70;73.90;;;;;;5097251;28;20471;-66
2022/08/14 05:28:18;;;;;;;2.55;2.00;;;19.70;73.90;;;;;;5095653;28;20024;-66
2022/08/14 05:30:46;;;;;;;3.05;2.00;;;19.70;74.30;;;;;;5097316;28;20508;-66
2022/08/14 05:33:13;;;;;;;4.68;2.20;;;19.50;74.70;;;;;;5097169;28;20039;-66
2022/08/14 05:35:39;;;;;;;2.70;2.20;;;19.50;74.80;;;;;;5097005;28;20031;-66
2022/08/14 05:38:13;;;;;;;2.22;2.00;;;19.50;75.00;;;;;;5096745;28;20020;-66
2022/08/14 05:40:40;;;;;;;2.72;1.83;;;19.50;75.20;;;;;;5097052;28;20024;-66
2022/08/14 05:43:06;;;;;;;3.35;2.20;;;19.60;75.30;;;;;;5096325;28;20476;-66
2022/08/14 05:45:34;;;;;;;3.15;2.30;;;19.60;75.40;;;;;;5096517;28;20028;-66
2022/08/14 05:48:03;;;;;;;4.35;2.22;;;19.50;76.60;;;;;;5096000;28;20174;-66
2022/08/14 05:50:29;;;;;;;2.60;2.33;;;19.40;76.20;;;;;;5095901;28;20039;-66
2022/08/14 05:52:55;;;;;;;;;;;19.50;76.20;;;;;;5096206;28;20027;-66
2022/08/14 05:55:21;;;;;;;5.50;2.40;;;19.70;76.30;;;;;;5095799;28;19904;-65
2022/08/14 05:57:53;;;;;;;5.32;2.22;;;19.90;75.80;;;;;;5095826;28;20356;-65
2022/08/14 06:00:21;;;;;;;3.65;2.05;;;19.90;75.60;;;;;;5095874;28;20027;-66
2022/08/14 06:02:47;;;;;;;6.53;2.47;;;19.90;75.40;;;;;;5096310;28;20032;-66
2022/08/14 06:05:12;;;;;;;6.53;2.20;;;19.90;75.50;;;;;;5094657;28;20028;-65
2022/08/14 06:07:38;;;;;;;2.53;2.08;;;20.00;75.80;;;;;;5095926;28;20107;-66
2022/08/14 06:10:08;;;;;;;4.63;2.55;;;20.20;75.40;;;;;;5095662;28;20038;-66
2022/08/14 06:12:35;;;;;;;4.15;2.50;;;20.30;75.10;;;;;;5095736;28;20048;-66
2022/08/14 06:15:01;;;;;;;3.05;2.42;;;20.50;75.00;;;;;;5095473;28;20020;-66
2022/08/14 06:17:27;;;;;;;3.50;2.20;;;20.40;74.40;;;;;;5095371;28;20047;-66
2022/08/14 06:19:53;;;;;;;3.10;2.53;;;20.50;74.70;;;;;;5095549;28;20036;-66
2022/08/14 06:22:18;;;;;;;3.50;2.20;;;20.60;74.40;;;;;;5095546;28;20085;-65
2022/08/14 06:24:44;;;;;;;6.43;2.45;;;20.70;74.60;;;;;;5095585;28;20036;-66
2022/08/14 06:27:10;;;;;;;3.88;2.38;;;20.80;74.50;;;;;;5095446;28;20051;-67
2022/08/14 06:29:37;;;;;;;3.15;2.38;;;21.00;74.30;;;;;;5094095;28;20062;-67
2022/08/14 06:32:03;;;;;;;2.78;2.10;;;21.20;73.40;;;;;;5094639;28;20032;-68
2022/08/14 06:34:31;;;;;;;4.55;2.58;;;21.40;72.40;;;;;;5095414;28;20027;-67
2022/08/14 06:36:57;;;;;;;4.43;2.17;;;21.50;71.30;;;;;;5096187;28;20430;-66
2022/08/14 06:39:23;;;;;;;3.10;2.15;;;21.50;71.10;;;;;;5095165;28;20035;-66
2022/08/14 06:41:49;;;;;;;4.28;2.00;;;21.40;71.20;;;;;;5093773;28;20052;-67
2022/08/14 06:44:14;;;;;;;6.10;2.35;;;21.60;70.90;;;;;;5093649;28;20048;-66
2022/08/14 06:46:40;;;;;;;3.60;2.33;;;21.70;70.80;;;;;;5094198;28;20024;-66
2022/08/14 06:49:06;;;;;;;4.50;2.50;;;21.70;70.90;;;;;;5095706;28;20020;-66
2022/08/14 06:51:32;;;;;;;4.75;2.28;;;21.80;71.10;;;;;;5096902;28;20020;-67
2022/08/14 06:53:57;;;;;;;4.20;2.60;;;21.90;71.10;;;;;;5105421;28;20024;-67
2022/08/14 06:56:23;;;;;;;2.55;2.35;;;22.10;71.10;;;;;;5105297;28;20024;-65
2022/08/14 06:58:49;;;;;;;3.00;2.70;;;22.20;71.20;;;;;;5101655;28;20024;-65
2022/08/14 07:06:42;;;;;;;3.30;2.25;;;22.60;70.70;;;;;;5095876;28;20511;-67
2022/08/14 07:09:11;;;;;;;5.72;3.20;;;22.70;70.70;;;;;;5095899;28;20028;-66
2022/08/14 07:11:37;;;;;;;3.53;2.58;;;22.60;71.00;;;;;;5096326;28;20029;-67
2022/08/14 07:14:03;;;;;;;3.30;2.30;;;22.90;71.10;;;;;;5096142;28;20106;-65
2022/08/14 07:16:29;;;;;;;7.28;2.70;;;22.90;70.90;;;;;;5095670;28;20043;-66
2022/08/14 07:18:55;;;;;;;4.85;2.42;;;23.00;71.20;;;;;;5094780;28;20024;-65
2022/08/14 07:21:21;;;;;;;7.95;3.33;;;23.20;70.50;;;;;;5093058;28;20027;-66
2022/08/14 07:23:46;;;;;;;;;;;23.40;70.30;;;;;;5095965;28;20040;-66
2022/08/14 07:26:12;;;;;;;2.60;2.17;;;23.50;69.40;;;;;;5095141;28;19973;-66
2022/08/14 07:28:39;;;;;;;6.68;2.40;;;23.60;68.50;;;;;;5092674;28;20028;-65
2022/08/14 07:31:08;;;;;;;3.05;2.38;;;23.70;68.30;;;;;;5094478;28;20028;-69
2022/08/14 07:33:41;;;;;;;3.45;2.78;;;23.80;68.20;;;;;;5094461;28;20047;-69
2022/08/14 07:36:10;;;;;;;5.63;2.53;;;23.90;68.40;;;;;;5094386;28;20031;-68
2022/08/14 07:38:35;;;;;;;3.63;2.60;;;23.90;68.40;;;;;;5092309;28;20020;-69
2022/08/14 07:41:04;;;;;;;3.47;2.33;;;24.00;68.60;;;;;;5093531;28;20020;-67
2022/08/14 07:43:29;;;;;;;4.75;2.40;;;24.00;67.70;;;;;;5093423;28;20083;-68
2022/08/14 07:45:55;;;;;;;2.75;2.30;;;24.10;67.20;;;;;;5094249;28;20476;-68
2022/08/14 07:48:21;;;;;;;;;;;24.20;66.90;;;;;;5095180;28;20055;-69
2022/08/14 07:50:49;;;;;;;2.38;2.17;;;24.30;66.90;;;;;;5092684;28;19904;-69
2022/08/14 07:53:15;;;;;;;3.30;2.40;;;24.30;66.80;;;;;;5092743;28;20392;-68
2022/08/14 07:55:41;;;;;;;2.95;2.28;;;24.50;66.60;;;;;;5094049;28;20389;-68
2022/08/14 07:58:07;;;;;;;2.95;1.88;;;24.50;66.10;;;;;;5093711;28;20030;-69
2022/08/14 08:00:33;;;;;;;;;;;24.70;66.00;;;;;;5092657;28;20024;-68
2022/08/14 08:02:59;;;;;;;4.82;2.20;;;24.80;66.10;;;;;;5093484;28;19911;-68
2022/08/14 08:05:25;;;;;;;;;;;24.90;65.60;;;;;;5094785;28;20024;-69
2022/08/14 08:07:52;;;;;;;3.95;2.88;;;25.00;65.30;;;;;;5092247;28;19942;-70
2022/08/14 08:10:33;;;;;;;5.15;2.60;;;25.10;64.80;;;;;;5094038;28;20028;-69
2022/08/14 08:13:11;;;;;;;4.28;2.58;;;25.30;64.70;;;;;;5093904;28;20081;-69
2022/08/14 08:15:56;;;;;;;6.03;2.28;;;25.40;63.50;;;;;;5092856;28;20028;-70
2022/08/14 08:18:23;;;;;;;5.15;2.38;;;25.70;62.80;;;;;;5092650;28;20040;-69
2022/08/14 08:20:51;;;;;;;2.35;2.08;;;25.80;62.40;;;;;;5094064;28;20060;-69
2022/08/14 08:23:19;;;;;;;2.63;2.20;;;26.30;61.60;;;;;;5091567;28;20020;-68
2022/08/14 08:25:47;;;;;;;3.60;2.22;;;28.40;59.60;;;;;;5091911;28;20028;-69
2022/08/14 08:28:14;;;;;;;6.60;2.83;;;31.70;55.60;;;;;;5092860;28;20029;-69
2022/08/14 08:30:45;;;;;;;5.32;2.67;;;33.60;52.60;;;;;;5092871;28;20035;-70
2022/08/14 08:33:12;;;;;;;2.47;1.85;;;35.70;50.40;;;;;;5092428;28;20410;-66
2022/08/14 08:35:37;;;;;;;2.22;1.70;;;37.70;48.40;;;;;;5093583;28;20031;-67
2022/08/14 08:38:16;;;;;;;4.22;2.13;;;39.10;46.80;;;;;;5094867;28;20206;-67
2022/08/14 08:40:44;;;;;;;2.97;2.33;;;40.00;45.60;;;;;;5096144;28;20024;-67
2022/08/14 08:43:18;;;;;;;1.98;1.70;;;41.10;45.00;;;;;;5093497;28;20100;-66
2022/08/14 08:45:51;;;;;;;4.28;1.80;;;41.70;43.70;;;;;;5091651;28;20032;-66
2022/08/14 08:48:17;;;;;;;3.53;1.83;;;42.20;43.20;;;;;;5092936;28;20508;-67
2022/08/14 08:50:42;;;;;;;3.08;1.77;;;42.80;42.90;;;;;;5093551;28;20028;-67
2022/08/14 08:53:09;;;;;;;1.85;1.45;;;41.90;42.50;;;;;;5093572;28;20077;-67
2022/08/14 08:55:41;;;;;;;1.63;1.48;;;41.90;42.20;;;;;;5092790;28;20028;-67
2022/08/14 08:58:10;;;;;;;3.70;1.70;;;41.50;42.50;;;;;;5096626;28;20024;-67
2022/08/14 09:00:37;;;;;;;1.83;1.70;;;42.10;42.50;;;;;;5096500;28;20051;-66
2022/08/14 09:03:14;;;;;;;1.85;1.60;;;41.80;42.60;;;;;;5097210;28;20100;-67
2022/08/14 09:06:02;;;;;;;5.18;1.60;;;41.90;42.50;;;;;;5096492;28;20069;-68
2022/08/14 09:08:33;;;;;;;2.55;1.50;;;41.80;42.30;;;;;;5096488;28;20519;-66
2022/08/14 09:11:01;;;;;;;2.00;1.60;;;41.50;42.00;;;;;;5097185;28;20074;-66
2022/08/14 09:13:28;;;;;;;1.80;1.40;;;42.10;41.90;;;;;;5096138;28;20095;-68
2022/08/14 09:15:55;;;;;;;3.35;1.48;;;42.50;41.60;;;;;;5096471;28;20097;-67
2022/08/14 09:18:22;;;;;;;2.38;1.70;;;43.50;41.30;;;;;;5097539;28;20020;-67
2022/08/14 09:20:51;;;;;;;1.50;1.30;;;44.10;40.70;;;;;;5097228;28;20023;-67
2022/08/14 09:23:17;;;;;;;2.33;1.60;;;44.20;40.00;;;;;;5094933;28;20051;-68
2022/08/14 09:25:48;;;;;;;1.67;1.40;;;44.20;40.20;;;;;;5096893;28;20055;-68
2022/08/14 09:28:16;;;;;;;3.70;1.48;;;44.20;40.00;;;;;;5096208;28;20104;-68
2022/08/14 09:30:47;;;;;;;2.28;1.45;;;43.60;40.10;;;;;;5096121;28;20125;-67
2022/08/14 09:33:44;;;;;;;1.63;1.52;;;44.50;40.20;;;;;;5096023;28;20020;-68
2022/08/14 09:36:29;;;;;;;1.92;1.30;;;45.80;39.50;;;;;;5095932;28;20031;-67
2022/08/14 09:39:10;;;;;;;2.78;1.40;;;45.30;38.70;;;;;;5094555;28;20123;-67
2022/08/14 09:41:49;;;;;;;4.93;1.60;;;44.60;39.10;;;;;;5096482;28;20020;-68
2022/08/14 09:44:41;;;;;;;3.00;2.70;;;43.70;39.20;;;;;;5094683;28;20445;-68
2022/08/14 09:47:09;;;;;;;3.60;1.60;;;43.30;39.50;;;;;;5095894;28;20024;-68
2022/08/14 09:49:36;;;;;;;2.65;1.88;;;42.20;39.70;;;;;;5095846;28;20020;-66
2022/08/14 09:52:06;;;;;;;2.40;1.73;;;42.50;40.30;;;;;;5096133;28;20027;-65
2022/08/14 09:54:43;;;;;;;1.67;1.58;;;43.90;39.70;;;;;;5096408;28;20141;-67
2022/08/14 09:57:10;;;;;;;3.40;1.35;;;44.00;39.30;;;;;;5096310;28;20031;-66
2022/08/14 09:59:40;;;;;;;2.55;1.40;;;44.00;39.20;;;;;;5095709;28;20448;-67
2022/08/14 10:02:36;;;;;;;1.80;1.52;;;44.90;39.20;;;;;;5094173;28;20020;-68
2022/08/14 10:05:11;;;;;;;3.60;1.88;;;44.10;38.60;;;;;;5096135;28;20380;-66
2022/08/14 10:07:51;;;;;;;5.03;1.45;;;42.90;39.50;;;;;;5095269;28;20419;-67
2022/08/14 10:10:30;;;;;;;3.08;1.73;;;42.80;39.60;;;;;;5093914;28;20076;-66
2022/08/14 10:12:57;;;;;;;4.40;1.70;;;42.50;39.70;;;;;;5096326;28;20024;-66
2022/08/14 10:15:25;;;;;;;2.08;1.55;;;42.60;39.80;;;;;;5095727;28;20491;-67
2022/08/14 10:18:10;;;;;;;5.78;2.80;;;43.10;39.70;;;;;;5095443;28;20060;-66
2022/08/14 10:20:43;;;;;;;3.53;2.08;;;43.90;39.30;;;;;;5095345;28;20020;-67
2022/08/14 10:23:19;;;;;;;3.20;2.00;;;44.30;39.20;;;;;;5095630;28;20128;-66
2022/08/14 10:25:49;;;;;;;1.95;1.60;;;44.40;38.90;;;;;;5095647;28;20116;-67
2022/08/14 10:28:16;;;;;;;2.22;1.63;;;44.10;39.10;;;;;;5095001;28;20028;-68
2022/08/14 10:30:47;;;;;;;2.53;1.95;;;43.60;39.30;;;;;;5094999;28;20064;-68
2022/08/14 10:33:30;;;;;;;1.60;1.50;;;43.20;39.30;;;;;;5095099;28;20020;-67
2022/08/14 10:35:57;;;;;;;2.30;2.00;;;42.80;39.50;;;;;;5095386;28;20024;-66
2022/08/14 10:38:34;;;;;;;2.30;1.52;;;43.20;39.70;;;;;;5093588;28;20085;-66
2022/08/14 10:41:14;;;;;;;2.65;1.63;;;43.60;39.50;;;;;;5094760;28;20389;-66
2022/08/14 10:43:42;;;;;;;3.38;1.70;;;44.10;39.40;;;;;;5095050;28;20016;-66
2022/08/14 10:46:15;;;;;;;2.30;2.10;;;44.40;38.90;;;;;;5093482;28;20111;-66
2022/08/14 10:48:55;;;;;;;3.78;2.28;;;43.90;39.00;;;;;;5093326;28;20461;-66
2022/08/14 10:51:26;;;;;;;1.90;1.80;;;43.30;39.20;;;;;;5095037;28;20025;-67
2022/08/14 10:53:56;;;;;;;2.60;2.03;;;43.30;39.60;;;;;;5094438;28;20028;-68
2022/08/14 10:56:33;;;;;;;2.88;2.00;;;42.90;39.30;;;;;;5094765;28;20028;-67
2022/08/14 10:59:02;;;;;;;3.13;2.25;;;42.20;39.50;;;;;;5094957;28;20024;-68
2022/08/14 11:01:36;;;;;;;1.85;1.50;;;42.40;39.60;;;;;;5095234;28;20468;-68
2022/08/14 11:04:02;;;;;;;2.28;1.83;;;42.60;39.40;;;;;;5095118;28;20020;-67
2022/08/14 11:06:29;;;;;;;2.13;1.70;;;42.40;39.60;;;;;;5094629;28;20024;-65
2022/08/14 11:08:55;;;;;;;2.60;2.13;;;42.50;39.60;;;;;;5093429;28;20028;-67
2022/08/14 11:11:24;;;;;;;3.72;1.70;;;42.20;39.50;;;;;;5094254;28;20043;-66
2022/08/14 11:13:54;;;;;;;6.90;5.10;;;41.70;39.70;;;;;;5092823;28;20047;-66
2022/08/14 11:16:21;;;;;;;2.53;2.10;;;40.10;40.80;;;;;;5092992;28;20035;-66
2022/08/14 11:18:50;;;;;;;3.47;2.17;;;38.60;41.40;;;;;;5093685;28;20414;-66
2022/08/14 11:21:19;;;;;;;2.95;1.80;;;36.60;42.40;;;;;;5094025;28;20115;-66
2022/08/14 11:23:46;;;;;;;4.53;2.00;;;35.30;43.70;;;;;;5093981;28;20133;-66
2022/08/14 11:26:13;;;;;;;2.20;1.80;;;34.50;43.90;;;;;;5094043;28;20024;-65
2022/08/14 11:28:42;;;;;;;6.13;2.13;;;34.20;44.60;;;;;;5094305;28;20035;-65
2022/08/14 11:31:10;;;;;;;3.42;1.65;;;33.80;44.70;;;;;;5094401;28;20329;-66
2022/08/14 11:33:37;;;;;;;2.75;1.70;;;33.40;45.60;;;;;;5092266;28;20028;-66
2022/08/14 11:36:05;;;;;;;3.05;1.90;;;33.10;45.00;;;;;;5093427;28;20024;-66
2022/08/14 11:38:42;;;;;;;2.78;2.10;;;32.80;45.40;;;;;;5093835;28;20027;-66
2022/08/14 11:41:09;;;;;;;4.20;2.42;;;32.60;45.40;;;;;;5092680;28;20024;-65
2022/08/14 11:43:39;;;;;;;2.75;1.90;;;32.60;45.40;;;;;;5092553;28;20074;-66
2022/08/14 11:46:06;;;;;;;2.67;2.30;;;32.60;45.60;;;;;;5092933;28;20016;-67
2022/08/14 11:48:31;;;;;;;2.35;1.83;;;32.70;44.60;;;;;;5094373;28;20074;-67
2022/08/14 11:50:59;;;;;;;2.42;1.75;;;32.70;44.30;;;;;;5094883;28;20031;-65
2022/08/14 11:53:30;;;;;;;1.92;1.50;;;32.80;44.90;;;;;;5095360;28;20048;-65
2022/08/14 11:56:03;;;;;;;2.03;1.83;;;32.80;44.20;;;;;;5094142;28;20078;-65
2022/08/14 11:58:31;;;;;;;4.82;1.75;;;32.80;43.90;;;;;;5093993;28;20392;-66
2022/08/14 12:01:00;;;;;;;3.03;1.95;;;32.90;43.30;;;;;;5092058;28;20070;-66
2022/08/14 12:03:39;;;;;;;3.30;1.40;;;32.90;43.70;;;;;;5093340;28;20016;-66
2022/08/14 12:06:22;;;;;;;1.80;1.60;;;32.90;43.30;;;;;;5093426;28;20024;-65
2022/08/14 12:08:52;;;;;;;3.28;2.10;;;32.70;43.90;;;;;;5093290;28;20028;-66
2022/08/14 12:11:19;;;;;;;2.17;1.52;;;32.50;44.40;;;;;;5093274;28;20051;-67
2022/08/14 12:13:45;;;;;;;3.45;2.22;;;32.60;44.00;;;;;;5093641;28;20051;-66
2022/08/14 12:16:15;;;;;;;2.38;1.52;;;32.70;44.10;;;;;;5092257;28;20070;-66
2022/08/14 12:18:44;;;;;;;3.15;2.08;;;32.60;43.50;;;;;;5093317;28;20028;-66
2022/08/14 12:21:22;;;;;;;2.13;1.50;;;32.60;43.40;;;;;;5094091;28;20016;-65
2022/08/14 12:24:00;;;;;;;2.00;1.65;;;32.80;43.00;;;;;;5093356;28;20048;-68
2022/08/14 12:26:26;;;;;;;2.15;1.60;;;32.90;43.00;;;;;;5092036;28;20481;-68
2022/08/14 12:29:15;;;;;;;1.48;1.27;;;32.80;42.70;;;;;;5093130;28;20039;-69
2022/08/14 12:31:43;;;;;;;1.60;1.50;;;32.80;42.60;;;;;;5096301;28;20515;-69
2022/08/14 12:34:11;;;;;;;3.33;2.10;;;32.70;42.60;;;;;;5097055;28;20024;-69
2022/08/14 12:36:37;;;;;;;4.50;1.52;;;32.70;42.80;;;;;;5096995;28;20028;-68
2022/08/14 12:39:16;;;;;;;3.38;1.50;;;32.60;43.10;;;;;;5095934;28;20548;-69
2022/08/14 12:41:54;;;;;;;2.47;1.80;;;32.70;43.30;;;;;;5094981;28;20024;-67
2022/08/14 12:44:29;;;;;;;1.98;1.58;;;32.90;43.00;;;;;;5095001;28;20016;-67
2022/08/14 12:47:04;;;;;;;1.97;1.60;;;32.90;42.80;;;;;;5094994;28;20021;-67
2022/08/14 12:49:30;;;;;;;1.90;1.52;;;32.90;42.80;;;;;;5094782;28;20016;-67
2022/08/14 12:52:01;;;;;;;1.50;1.38;;;33.00;42.90;;;;;;5093778;28;20021;-67
2022/08/14 12:54:28;;;;;;;1.60;1.50;;;33.10;43.00;;;;;;5095155;28;20012;-68
2022/08/14 12:57:07;;;;;;;3.33;1.60;;;33.10;43.30;;;;;;5096905;28;20027;-69
2022/08/14 12:59:34;;;;;;;3.22;1.58;;;33.20;43.30;;;;;;5096839;28;20030;-67
2022/08/14 13:02:00;;;;;;;2.78;1.70;;;33.10;43.20;;;;;;5097275;28;20012;-70
2022/08/14 13:04:30;;;;;;;2.33;1.80;;;33.30;43.70;;;;;;5097057;28;20016;-69
2022/08/14 13:07:07;;;;;;;2.28;1.60;;;33.40;43.50;;;;;;5095273;28;20047;-68
2022/08/14 13:09:34;;;;;;;2.22;1.40;;;33.60;43.70;;;;;;5096676;28;20102;-69
2022/08/14 13:12:04;;;;;;;2.08;1.48;;;33.60;43.00;;;;;;5096862;28;20473;-68
2022/08/14 13:14:32;;;;;;;1.63;1.52;;;33.70;42.80;;;;;;5096749;28;20028;-68
2022/08/14 13:16:58;;;;;;;1.80;1.70;;;33.60;43.30;;;;;;5096282;28;20477;-69